sensor_id;sensor_type;location;lat;lon;timestamp;temperature;humidity
1005;DHT22;491;53.480;10.174;2023-07-20T00:01:22;16.10;99.90
1005;DHT22;491;53.480;10.174;2023-07-20T00:03:48;16.10;99.90
1005;DHT22;491;53.480;10.174;2023-07-20T00:06:26;16.10;99.90
1005;DHT22;491;53.480;10.174;2023-07-20T00:08:53;16.10;99.90
1005;DHT22;491;53.480;10.174;2023-07-20T00:11:19;16.10;99.90
1005;DHT22;491;53.480;10.174;2023-07-20T00:13:44;16.10;99.90
1005;DHT22;491;53.480;10.174;2023-07-20T00:16:10;16.10;99.90
1005;DHT22;491;53.480;10.174;2023-07-20T00:18:35;16.10;99.90
1005;DHT22;491;53.480;10.174;2023-07-20T00:21:01;16.10;99.90
1005;DHT22;491;53.480;10.174;2023-07-20T00:23:27;16.10;99.90
1005;DHT22;491;53.480;10.174;2023-07-20T00:25:52;16.10;99.90
1005;DHT22;491;53.480;10.174;2023-07-20T00:28:18;16.20;99.90
1005;DHT22;491;53.480;10.174;2023-07-20T00:30:44;16.20;99.90
1005;DHT22;491;53.480;10.174;2023-07-20T00:33:11;16.20;99.90
1005;DHT22;491;53.480;10.174;2023-07-20T00:35:39;16.30;99.90
1005;DHT22;491;53.480;10.174;2023-07-20T00:38:05;16.30;99.90
1005;DHT22;491;53.480;10.174;2023-07-20T00:40:40;16.40;99.90
1005;DHT22;491;53.480;10.174;2023-07-20T00:43:06;16.40;99.90
1005;DHT22;491;53.480;10.174;2023-07-20T00:45:33;16.40;99.90
1005;DHT22;491;53.480;10.174;2023-07-20T00:47:59;16.40;99.90
1005;DHT22;491;53.480;10.174;2023-07-20T00:50:27;16.50;99.90
1005;DHT22;491;53.480;10.174;2023-07-20T00:52:53;16.50;99.90
1005;DHT22;491;53.480;10.174;2023-07-20T00:55:19;16.50;99.90
1005;DHT22;491;53.480;10.174;2023-07-20T00:57:44;16.60;99.90
1005;DHT22;491;53.480;10.174;2023-07-20T01:00:11;16.60;99.90
1005;DHT22;491;53.480;10.174;2023-07-20T01:02:36;16.60;99.90
1005;DHT22;491;53.480;10.174;2023-07-20T01:05:02;16.50;99.90
1005;DHT22;491;53.480;10.174;2023-07-20T01:07:35;16.60;99.90
1005;DHT22;491;53.480;10.174;2023-07-20T01:10:14;16.50;99.90
1005;DHT22;491;53.480;10.174;2023-07-20T01:12:47;16.40;99.90
1005;DHT22;491;53.480;10.174;2023-07-20T01:15:13;16.40;99.90
1005;DHT22;491;53.480;10.174;2023-07-20T01:17:39;16.50;99.90
1005;DHT22;491;53.480;10.174;2023-07-20T01:20:06;16.50;99.90
1005;DHT22;491;53.480;10.174;2023-07-20T01:33:36;16.60;99.90
1005;DHT22;491;53.480;10.174;2023-07-20T01:36:01;16.60;99.90
1005;DHT22;491;53.480;10.174;2023-07-20T01:38:28;16.60;99.90
1005;DHT22;491;53.480;10.174;2023-07-20T01:40:54;16.60;99.90
1005;DHT22;491;53.480;10.174;2023-07-20T01:43:20;16.60;99.90
1005;DHT22;491;53.480;10.174;2023-07-20T01:45:45;16.60;99.90
1005;DHT22;491;53.480;10.174;2023-07-20T01:48:11;16.60;99.90
1005;DHT22;491;53.480;10.174;2023-07-20T01:50:36;16.60;99.90
1005;DHT22;491;53.480;10.174;2023-07-20T01:53:02;16.60;99.90
1005;DHT22;491;53.480;10.174;2023-07-20T01:55:27;16.60;99.90
1005;DHT22;491;53.480;10.174;2023-07-20T01:57:55;16.60;99.90
1005;DHT22;491;53.480;10.174;2023-07-20T02:00:20;16.60;99.90
1005;DHT22;491;53.480;10.174;2023-07-20T02:02:49;16.60;99.90
1005;DHT22;491;53.480;10.174;2023-07-20T02:05:15;16.60;99.90
1005;DHT22;491;53.480;10.174;2023-07-20T02:07:40;16.60;99.90
1005;DHT22;491;53.480;10.174;2023-07-20T02:10:06;16.60;99.90
1005;DHT22;491;53.480;10.174;2023-07-20T02:12:32;16.70;99.90
1005;DHT22;491;53.480;10.174;2023-07-20T02:14:57;16.70;99.90
1005;DHT22;491;53.480;10.174;2023-07-20T02:17:22;16.60;99.90
1005;DHT22;491;53.480;10.174;2023-07-20T02:19:52;16.60;99.90
1005;DHT22;491;53.480;10.174;2023-07-20T02:22:17;16.60;99.90
1005;DHT22;491;53.480;10.174;2023-07-20T02:24:43;16.60;99.90
1005;DHT22;491;53.480;10.174;2023-07-20T02:27:08;16.60;99.90
1005;DHT22;491;53.480;10.174;2023-07-20T02:29:34;16.70;99.90
1005;DHT22;491;53.480;10.174;2023-07-20T02:31:59;16.60;99.90
1005;DHT22;491;53.480;10.174;2023-07-20T02:34:25;16.60;99.90
1005;DHT22;491;53.480;10.174;2023-07-20T02:36:50;16.60;99.90
1005;DHT22;491;53.480;10.174;2023-07-20T02:39:16;16.60;99.90
1005;DHT22;491;53.480;10.174;2023-07-20T02:41:41;16.60;99.90
1005;DHT22;491;53.480;10.174;2023-07-20T02:44:07;16.60;99.90
1005;DHT22;491;53.480;10.174;2023-07-20T02:46:32;16.60;99.90
1005;DHT22;491;53.480;10.174;2023-07-20T02:48:59;16.50;99.90
1005;DHT22;491;53.480;10.174;2023-07-20T02:51:25;16.40;99.90
1005;DHT22;491;53.480;10.174;2023-07-20T02:53:50;16.50;99.90
1005;DHT22;491;53.480;10.174;2023-07-20T02:56:15;16.50;99.90
1005;DHT22;491;53.480;10.174;2023-07-20T02:58:42;16.40;99.90
1005;DHT22;491;53.480;10.174;2023-07-20T03:01:13;16.50;99.90
1005;DHT22;491;53.480;10.174;2023-07-20T03:03:41;16.60;99.90
1005;DHT22;491;53.480;10.174;2023-07-20T03:06:12;16.60;99.90
1005;DHT22;491;53.480;10.174;2023-07-20T03:08:38;16.60;99.90
1005;DHT22;491;53.480;10.174;2023-07-20T03:11:03;16.60;99.90
1005;DHT22;491;53.480;10.174;2023-07-20T03:13:29;16.60;99.90
1005;DHT22;491;53.480;10.174;2023-07-20T03:15:54;16.50;99.90
1005;DHT22;491;53.480;10.174;2023-07-20T03:18:19;16.50;99.90
1005;DHT22;491;53.480;10.174;2023-07-20T03:20:45;16.50;99.90
1005;DHT22;491;53.480;10.174;2023-07-20T03:23:11;16.50;99.90
1005;DHT22;491;53.480;10.174;2023-07-20T03:25:37;16.50;99.90
1005;DHT22;491;53.480;10.174;2023-07-20T03:28:04;16.50;99.90
1005;DHT22;491;53.480;10.174;2023-07-20T03:30:29;16.50;99.90
1005;DHT22;491;53.480;10.174;2023-07-20T03:32:54;16.50;99.90
1005;DHT22;491;53.480;10.174;2023-07-20T03:35:20;16.50;99.90
1005;DHT22;491;53.480;10.174;2023-07-20T03:37:45;16.50;99.90
1005;DHT22;491;53.480;10.174;2023-07-20T03:40:11;16.50;99.90
1005;DHT22;491;53.480;10.174;2023-07-20T03:42:36;16.50;99.90
1005;DHT22;491;53.480;10.174;2023-07-20T03:45:03;16.50;99.90
1005;DHT22;491;53.480;10.174;2023-07-20T03:47:29;16.50;99.90
1005;DHT22;491;53.480;10.174;2023-07-20T03:49:55;16.40;99.90
1005;DHT22;491;53.480;10.174;2023-07-20T03:52:20;16.40;99.90
1005;DHT22;491;53.480;10.174;2023-07-20T03:54:46;16.40;99.90
1005;DHT22;491;53.480;10.174;2023-07-20T03:57:11;16.40;99.90
1005;DHT22;491;53.480;10.174;2023-07-20T03:59:38;16.40;99.90
1005;DHT22;491;53.480;10.174;2023-07-20T04:02:04;16.40;99.90
1005;DHT22;491;53.480;10.174;2023-07-20T04:04:31;16.40;99.90
1005;DHT22;491;53.480;10.174;2023-07-20T04:06:56;16.50;99.90
1005;DHT22;491;53.480;10.174;2023-07-20T04:09:22;16.60;99.90
1005;DHT22;491;53.480;10.174;2023-07-20T04:11:47;16.60;99.90
1005;DHT22;491;53.480;10.174;2023-07-20T04:14:13;16.60;99.90
1005;DHT22;491;53.480;10.174;2023-07-20T04:16:38;16.60;99.90
1005;DHT22;491;53.480;10.174;2023-07-20T04:19:04;16.60;99.90
1005;DHT22;491;53.480;10.174;2023-07-20T04:21:29;16.50;99.90
1005;DHT22;491;53.480;10.174;2023-07-20T04:23:55;16.50;99.90
1005;DHT22;491;53.480;10.174;2023-07-20T04:26:20;16.60;99.90
1005;DHT22;491;53.480;10.174;2023-07-20T04:28:46;16.50;99.90
1005;DHT22;491;53.480;10.174;2023-07-20T04:31:13;16.50;99.90
1005;DHT22;491;53.480;10.174;2023-07-20T04:33:39;16.60;99.90
1005;DHT22;491;53.480;10.174;2023-07-20T04:36:05;16.60;99.90
1005;DHT22;491;53.480;10.174;2023-07-20T04:38:31;16.60;99.90
1005;DHT22;491;53.480;10.174;2023-07-20T04:40:56;16.60;99.90
1005;DHT22;491;53.480;10.174;2023-07-20T04:43:22;16.60;99.90
1005;DHT22;491;53.480;10.174;2023-07-20T04:45:47;16.70;99.90
1005;DHT22;491;53.480;10.174;2023-07-20T04:48:14;16.70;99.90
1005;DHT22;491;53.480;10.174;2023-07-20T04:50:41;16.80;99.90
1005;DHT22;491;53.480;10.174;2023-07-20T04:53:08;16.80;99.90
1005;DHT22;491;53.480;10.174;2023-07-20T04:55:35;16.80;99.90
1005;DHT22;491;53.480;10.174;2023-07-20T04:58:02;16.80;99.90
1005;DHT22;491;53.480;10.174;2023-07-20T05:00:29;16.90;99.90
1005;DHT22;491;53.480;10.174;2023-07-20T05:02:55;16.90;99.90
1005;DHT22;491;53.480;10.174;2023-07-20T05:05:21;16.90;99.90
1005;DHT22;491;53.480;10.174;2023-07-20T05:07:46;17.00;99.90
1005;DHT22;491;53.480;10.174;2023-07-20T05:10:12;17.00;99.90
1005;DHT22;491;53.480;10.174;2023-07-20T05:12:37;17.10;99.90
1005;DHT22;491;53.480;10.174;2023-07-20T05:15:03;17.00;99.90
1005;DHT22;491;53.480;10.174;2023-07-20T05:17:29;17.10;99.90
1005;DHT22;491;53.480;10.174;2023-07-20T05:19:54;17.10;99.90
1005;DHT22;491;53.480;10.174;2023-07-20T05:22:20;17.20;99.90
1005;DHT22;491;53.480;10.174;2023-07-20T05:24:45;17.30;99.90
1005;DHT22;491;53.480;10.174;2023-07-20T05:27:11;17.30;99.90
1005;DHT22;491;53.480;10.174;2023-07-20T05:29:36;17.30;99.90
1005;DHT22;491;53.480;10.174;2023-07-20T05:32:02;17.30;99.90
1005;DHT22;491;53.480;10.174;2023-07-20T05:34:28;17.40;99.90
1005;DHT22;491;53.480;10.174;2023-07-20T05:36:54;17.40;99.90
1005;DHT22;491;53.480;10.174;2023-07-20T05:39:20;17.40;99.90
1005;DHT22;491;53.480;10.174;2023-07-20T05:41:45;17.40;99.90
1005;DHT22;491;53.480;10.174;2023-07-20T05:44:11;17.50;99.90
1005;DHT22;491;53.480;10.174;2023-07-20T05:46:36;17.60;99.90
1005;DHT22;491;53.480;10.174;2023-07-20T05:49:02;17.70;99.90
1005;DHT22;491;53.480;10.174;2023-07-20T05:51:27;17.90;99.90
1005;DHT22;491;53.480;10.174;2023-07-20T05:53:53;17.90;99.90
1005;DHT22;491;53.480;10.174;2023-07-20T05:56:18;18.00;99.90
1005;DHT22;491;53.480;10.174;2023-07-20T05:58:44;18.10;99.90
1005;DHT22;491;53.480;10.174;2023-07-20T06:01:09;18.20;99.90
1005;DHT22;491;53.480;10.174;2023-07-20T06:03:35;18.40;99.90
1005;DHT22;491;53.480;10.174;2023-07-20T06:06:01;18.70;99.90
1005;DHT22;491;53.480;10.174;2023-07-20T06:08:28;18.90;99.90
1005;DHT22;491;53.480;10.174;2023-07-20T06:10:53;19.10;99.90
1005;DHT22;491;53.480;10.174;2023-07-20T06:13:19;19.40;99.90
1005;DHT22;491;53.480;10.174;2023-07-20T06:15:44;19.70;99.90
1005;DHT22;491;53.480;10.174;2023-07-20T06:18:10;19.80;99.90
1005;DHT22;491;53.480;10.174;2023-07-20T06:20:35;19.80;94.10
1005;DHT22;491;53.480;10.174;2023-07-20T06:23:01;19.80;93.40
1005;DHT22;491;53.480;10.174;2023-07-20T06:25:26;19.90;46.30
1005;DHT22;491;53.480;10.174;2023-07-20T06:27:52;19.90;1.00
1005;DHT22;491;53.480;10.174;2023-07-20T06:30:18;19.90;1.00
1005;DHT22;491;53.480;10.174;2023-07-20T06:32:43;19.90;1.00
1005;DHT22;491;53.480;10.174;2023-07-20T06:35:09;20.10;21.20
1005;DHT22;491;53.480;10.174;2023-07-20T06:37:35;20.20;1.00
1005;DHT22;491;53.480;10.174;2023-07-20T06:40:02;20.30;1.00
1005;DHT22;491;53.480;10.174;2023-07-20T06:42:28;20.40;1.00
1005;DHT22;491;53.480;10.174;2023-07-20T06:44:53;20.50;1.00
1005;DHT22;491;53.480;10.174;2023-07-20T06:47:19;20.70;1.00
1005;DHT22;491;53.480;10.174;2023-07-20T06:49:44;20.70;1.00
1005;DHT22;491;53.480;10.174;2023-07-20T06:52:10;20.70;1.00
1005;DHT22;491;53.480;10.174;2023-07-20T06:54:35;21.00;1.00
1005;DHT22;491;53.480;10.174;2023-07-20T06:57:01;21.30;99.90
1005;DHT22;491;53.480;10.174;2023-07-20T06:59:26;21.30;1.00
1005;DHT22;491;53.480;10.174;2023-07-20T07:01:52;21.30;1.00
1005;DHT22;491;53.480;10.174;2023-07-20T07:04:17;21.20;99.90
1005;DHT22;491;53.480;10.174;2023-07-20T07:06:43;21.20;1.00
1005;DHT22;491;53.480;10.174;2023-07-20T07:09:09;21.40;1.00
1005;DHT22;491;53.480;10.174;2023-07-20T07:11:35;21.40;29.00
1005;DHT22;491;53.480;10.174;2023-07-20T07:14:00;21.40;99.90
1005;DHT22;491;53.480;10.174;2023-07-20T07:16:26;21.20;1.00
1005;DHT22;491;53.480;10.174;2023-07-20T07:18:51;21.00;99.90
1005;DHT22;491;53.480;10.174;2023-07-20T07:21:17;21.00;1.00
1005;DHT22;491;53.480;10.174;2023-07-20T07:23:43;21.40;1.00
1005;DHT22;491;53.480;10.174;2023-07-20T07:26:09;22.00;99.90
1005;DHT22;491;53.480;10.174;2023-07-20T07:28:38;22.70;1.00
1005;DHT22;491;53.480;10.174;2023-07-20T07:31:07;23.60;1.00
1005;DHT22;491;53.480;10.174;2023-07-20T07:33:35;24.30;1.00
1005;DHT22;491;53.480;10.174;2023-07-20T07:36:00;24.70;1.00
1005;DHT22;491;53.480;10.174;2023-07-20T07:38:26;25.00;99.90
1005;DHT22;491;53.480;10.174;2023-07-20T07:40:51;24.90;99.90
1005;DHT22;491;53.480;10.174;2023-07-20T07:43:17;24.60;99.90
1005;DHT22;491;53.480;10.174;2023-07-20T07:45:42;24.80;99.90
1005;DHT22;491;53.480;10.174;2023-07-20T07:48:08;25.30;99.90
1005;DHT22;491;53.480;10.174;2023-07-20T07:50:36;25.90;99.90
1005;DHT22;491;53.480;10.174;2023-07-20T07:53:03;26.30;99.90
1005;DHT22;491;53.480;10.174;2023-07-20T07:55:28;26.60;99.90
1005;DHT22;491;53.480;10.174;2023-07-20T07:57:54;26.90;99.90
1005;DHT22;491;53.480;10.174;2023-07-20T08:00:20;26.90;99.90
1005;DHT22;491;53.480;10.174;2023-07-20T08:02:46;27.00;99.90
1005;DHT22;491;53.480;10.174;2023-07-20T08:05:14;27.30;99.90
1005;DHT22;491;53.480;10.174;2023-07-20T08:07:40;27.50;99.90
1005;DHT22;491;53.480;10.174;2023-07-20T08:10:09;27.20;99.90
1005;DHT22;491;53.480;10.174;2023-07-20T08:12:35;26.50;99.90
1005;DHT22;491;53.480;10.174;2023-07-20T08:15:00;25.70;99.90
1005;DHT22;491;53.480;10.174;2023-07-20T08:17:26;24.90;99.90
1005;DHT22;491;53.480;10.174;2023-07-20T08:19:51;24.40;99.90
1005;DHT22;491;53.480;10.174;2023-07-20T08:22:17;24.40;99.90
1005;DHT22;491;53.480;10.174;2023-07-20T08:24:43;25.00;99.90
1005;DHT22;491;53.480;10.174;2023-07-20T08:27:09;25.70;99.90
1005;DHT22;491;53.480;10.174;2023-07-20T08:29:35;26.50;99.90
1005;DHT22;491;53.480;10.174;2023-07-20T08:32:01;26.80;99.90
1005;DHT22;491;53.480;10.174;2023-07-20T08:34:27;27.30;99.90
1005;DHT22;491;53.480;10.174;2023-07-20T08:36:53;27.30;99.90
1005;DHT22;491;53.480;10.174;2023-07-20T08:39:18;26.80;99.90
1005;DHT22;491;53.480;10.174;2023-07-20T08:41:44;26.30;99.90
1005;DHT22;491;53.480;10.174;2023-07-20T08:44:10;26.70;99.90
1005;DHT22;491;53.480;10.174;2023-07-20T08:46:38;27.20;99.90
1005;DHT22;491;53.480;10.174;2023-07-20T08:49:04;28.00;99.90
1005;DHT22;491;53.480;10.174;2023-07-20T08:51:30;28.50;99.90
1005;DHT22;491;53.480;10.174;2023-07-20T08:53:58;29.20;99.90
1005;DHT22;491;53.480;10.174;2023-07-20T08:56:25;29.70;99.90
1005;DHT22;491;53.480;10.174;2023-07-20T08:58:53;30.20;99.90
1005;DHT22;491;53.480;10.174;2023-07-20T09:01:19;30.80;99.90
1005;DHT22;491;53.480;10.174;2023-07-20T09:03:45;30.80;99.90
1005;DHT22;491;53.480;10.174;2023-07-20T09:06:12;30.60;99.90
1005;DHT22;491;53.480;10.174;2023-07-20T09:08:40;30.10;99.90
1005;DHT22;491;53.480;10.174;2023-07-20T09:11:06;29.20;99.90
1005;DHT22;491;53.480;10.174;2023-07-20T09:13:33;28.20;99.90
1005;DHT22;491;53.480;10.174;2023-07-20T09:15:59;27.30;99.90
1005;DHT22;491;53.480;10.174;2023-07-20T09:18:26;26.40;99.90
1005;DHT22;491;53.480;10.174;2023-07-20T09:20:52;26.00;99.90
1005;DHT22;491;53.480;10.174;2023-07-20T09:23:17;25.90;99.90
1005;DHT22;491;53.480;10.174;2023-07-20T09:25:43;26.60;99.90
1005;DHT22;491;53.480;10.174;2023-07-20T09:28:11;27.50;99.90
1005;DHT22;491;53.480;10.174;2023-07-20T09:30:40;28.40;99.90
1005;DHT22;491;53.480;10.174;2023-07-20T09:33:05;29.30;99.90
1005;DHT22;491;53.480;10.174;2023-07-20T09:35:43;30.00;99.90
1005;DHT22;491;53.480;10.174;2023-07-20T09:38:09;30.30;99.90
1005;DHT22;491;53.480;10.174;2023-07-20T09:40:37;31.10;99.90
1005;DHT22;491;53.480;10.174;2023-07-20T09:43:07;31.80;99.90
1005;DHT22;491;53.480;10.174;2023-07-20T09:45:34;32.30;99.90
1005;DHT22;491;53.480;10.174;2023-07-20T09:48:05;32.80;99.90
1005;DHT22;491;53.480;10.174;2023-07-20T09:50:32;33.40;99.90
1005;DHT22;491;53.480;10.174;2023-07-20T09:52:58;33.60;99.90
1005;DHT22;491;53.480;10.174;2023-07-20T09:55:29;33.30;99.90
1005;DHT22;491;53.480;10.174;2023-07-20T09:57:56;32.30;99.90
1005;DHT22;491;53.480;10.174;2023-07-20T10:00:21;30.80;99.90
1005;DHT22;491;53.480;10.174;2023-07-20T10:02:49;29.40;99.90
1005;DHT22;491;53.480;10.174;2023-07-20T10:05:17;27.90;99.90
1005;DHT22;491;53.480;10.174;2023-07-20T10:07:48;26.70;99.90
1005;DHT22;491;53.480;10.174;2023-07-20T10:10:15;25.90;99.90
1005;DHT22;491;53.480;10.174;2023-07-20T10:12:43;24.90;99.90
1005;DHT22;491;53.480;10.174;2023-07-20T10:15:36;24.60;99.90
1005;DHT22;491;53.480;10.174;2023-07-20T10:18:46;24.30;99.90
1005;DHT22;491;53.480;10.174;2023-07-20T10:21:17;24.20;99.90
1005;DHT22;491;53.480;10.174;2023-07-20T10:23:45;24.70;1.00
1005;DHT22;491;53.480;10.174;2023-07-20T10:26:14;25.60;1.00
1005;DHT22;491;53.480;10.174;2023-07-20T10:28:42;26.60;99.90
1005;DHT22;491;53.480;10.174;2023-07-20T10:31:11;27.70;99.90
1005;DHT22;491;53.480;10.174;2023-07-20T10:33:40;28.30;99.90
1005;DHT22;491;53.480;10.174;2023-07-20T10:36:06;29.20;99.90
1005;DHT22;491;53.480;10.174;2023-07-20T10:41:29;30.10;99.90
1005;DHT22;491;53.480;10.174;2023-07-20T10:44:13;30.40;99.90
1005;DHT22;491;53.480;10.174;2023-07-20T10:49:05;30.10;99.90
1005;DHT22;491;53.480;10.174;2023-07-20T10:51:48;30.20;99.90
1005;DHT22;491;53.480;10.174;2023-07-20T10:56:43;29.80;99.90
1005;DHT22;491;53.480;10.174;2023-07-20T11:01:55;30.80;99.90
1005;DHT22;491;53.480;10.174;2023-07-20T11:04:47;31.10;99.90
1005;DHT22;491;53.480;10.174;2023-07-20T11:07:17;31.00;99.90
1005;DHT22;491;53.480;10.174;2023-07-20T11:09:43;30.30;99.90
1005;DHT22;491;53.480;10.174;2023-07-20T11:12:13;29.30;99.90
1005;DHT22;491;53.480;10.174;2023-07-20T11:14:42;28.20;99.90
1005;DHT22;491;53.480;10.174;2023-07-20T11:17:15;27.60;99.90
1005;DHT22;491;53.480;10.174;2023-07-20T11:19:41;27.40;99.90
1005;DHT22;491;53.480;10.174;2023-07-20T11:22:07;27.40;99.90
1005;DHT22;491;53.480;10.174;2023-07-20T11:24:38;27.40;99.90
1005;DHT22;491;53.480;10.174;2023-07-20T11:27:04;27.20;99.90
1005;DHT22;491;53.480;10.174;2023-07-20T11:29:30;27.10;99.90
1005;DHT22;491;53.480;10.174;2023-07-20T11:31:58;27.10;99.90
1005;DHT22;491;53.480;10.174;2023-07-20T11:34:24;27.20;99.90
1005;DHT22;491;53.480;10.174;2023-07-20T11:36:51;27.10;99.90
1005;DHT22;491;53.480;10.174;2023-07-20T11:39:18;26.50;99.90
1005;DHT22;491;53.480;10.174;2023-07-20T11:41:52;25.90;99.90
1005;DHT22;491;53.480;10.174;2023-07-20T11:44:18;25.50;99.90
1005;DHT22;491;53.480;10.174;2023-07-20T11:46:45;24.90;99.90
1005;DHT22;491;53.480;10.174;2023-07-20T11:49:11;24.40;99.90
1005;DHT22;491;53.480;10.174;2023-07-20T11:51:38;24.10;99.90
1005;DHT22;491;53.480;10.174;2023-07-20T11:54:08;23.90;99.90
1005;DHT22;491;53.480;10.174;2023-07-20T11:56:34;23.70;99.90
1005;DHT22;491;53.480;10.174;2023-07-20T11:59:00;23.50;99.90
1005;DHT22;491;53.480;10.174;2023-07-20T12:01:28;23.70;99.90
1005;DHT22;491;53.480;10.174;2023-07-20T12:04:01;24.00;99.90
1005;DHT22;491;53.480;10.174;2023-07-20T12:06:28;24.30;99.90
1005;DHT22;491;53.480;10.174;2023-07-20T12:08:56;24.40;99.90
1005;DHT22;491;53.480;10.174;2023-07-20T12:11:35;24.80;99.90
1005;DHT22;491;53.480;10.174;2023-07-20T12:14:01;25.30;99.90
1005;DHT22;491;53.480;10.174;2023-07-20T12:16:28;25.50;99.90
1005;DHT22;491;53.480;10.174;2023-07-20T12:19:08;25.70;99.90
1005;DHT22;491;53.480;10.174;2023-07-20T12:21:35;25.80;99.90
1005;DHT22;491;53.480;10.174;2023-07-20T12:24:02;26.00;99.90
1005;DHT22;491;53.480;10.174;2023-07-20T12:26:29;26.00;99.90
1005;DHT22;491;53.480;10.174;2023-07-20T12:28:55;26.10;99.90
1005;DHT22;491;53.480;10.174;2023-07-20T12:31:21;26.30;99.90
1005;DHT22;491;53.480;10.174;2023-07-20T12:33:54;26.60;99.90
1005;DHT22;491;53.480;10.174;2023-07-20T12:36:23;26.90;99.90
1005;DHT22;491;53.480;10.174;2023-07-20T12:38:49;27.10;99.90
1005;DHT22;491;53.480;10.174;2023-07-20T12:41:14;26.80;99.90
1005;DHT22;491;53.480;10.174;2023-07-20T12:43:41;26.70;99.90
1005;DHT22;491;53.480;10.174;2023-07-20T12:46:07;26.70;99.90
1005;DHT22;491;53.480;10.174;2023-07-20T12:48:32;26.60;99.90
1005;DHT22;491;53.480;10.174;2023-07-20T12:50:58;26.40;99.90
1005;DHT22;491;53.480;10.174;2023-07-20T12:53:24;25.80;99.90
1005;DHT22;491;53.480;10.174;2023-07-20T12:55:49;25.20;99.90
1005;DHT22;491;53.480;10.174;2023-07-20T12:58:15;24.60;99.90
1005;DHT22;491;53.480;10.174;2023-07-20T13:00:40;24.30;99.90
1005;DHT22;491;53.480;10.174;2023-07-20T13:03:07;24.00;99.90
1005;DHT22;491;53.480;10.174;2023-07-20T13:05:34;23.80;99.90
1005;DHT22;491;53.480;10.174;2023-07-20T13:08:00;23.70;99.90
1005;DHT22;491;53.480;10.174;2023-07-20T13:10:29;23.50;99.90
1005;DHT22;491;53.480;10.174;2023-07-20T13:12:55;23.70;99.90
1005;DHT22;491;53.480;10.174;2023-07-20T13:15:31;24.10;99.90
1005;DHT22;491;53.480;10.174;2023-07-20T13:17:57;25.20;99.90
1005;DHT22;491;53.480;10.174;2023-07-20T13:20:24;26.40;99.90
1005;DHT22;491;53.480;10.174;2023-07-20T13:22:49;27.50;99.90
1005;DHT22;491;53.480;10.174;2023-07-20T13:25:15;28.80;99.90
1005;DHT22;491;53.480;10.174;2023-07-20T13:27:40;29.40;99.90
1005;DHT22;491;53.480;10.174;2023-07-20T13:30:06;29.50;99.90
1005;DHT22;491;53.480;10.174;2023-07-20T13:32:33;30.00;99.90
1005;DHT22;491;53.480;10.174;2023-07-20T13:34:59;30.00;99.90
1005;DHT22;491;53.480;10.174;2023-07-20T13:37:24;29.90;99.90
1005;DHT22;491;53.480;10.174;2023-07-20T13:39:50;30.00;99.90
1005;DHT22;491;53.480;10.174;2023-07-20T13:42:16;30.10;99.90
1005;DHT22;491;53.480;10.174;2023-07-20T13:44:42;30.10;99.90
1005;DHT22;491;53.480;10.174;2023-07-20T13:47:07;29.90;99.90
1005;DHT22;491;53.480;10.174;2023-07-20T13:49:33;29.90;99.90
1005;DHT22;491;53.480;10.174;2023-07-20T13:51:59;30.10;99.90
1005;DHT22;491;53.480;10.174;2023-07-20T13:54:24;30.40;99.90
1005;DHT22;491;53.480;10.174;2023-07-20T13:56:50;30.50;99.90
1005;DHT22;491;53.480;10.174;2023-07-20T13:59:17;30.30;99.90
1005;DHT22;491;53.480;10.174;2023-07-20T14:01:52;30.10;99.90
1005;DHT22;491;53.480;10.174;2023-07-20T14:04:17;29.70;99.90
1005;DHT22;491;53.480;10.174;2023-07-20T14:06:43;29.10;99.90
1005;DHT22;491;53.480;10.174;2023-07-20T14:09:09;28.60;99.90
1005;DHT22;491;53.480;10.174;2023-07-20T14:11:34;28.10;99.90
1005;DHT22;491;53.480;10.174;2023-07-20T14:14:00;27.80;99.90
1005;DHT22;491;53.480;10.174;2023-07-20T14:16:25;27.60;99.90
1005;DHT22;491;53.480;10.174;2023-07-20T14:18:51;27.40;99.90
1005;DHT22;491;53.480;10.174;2023-07-20T14:21:18;27.20;99.90
1005;DHT22;491;53.480;10.174;2023-07-20T14:23:48;26.70;99.90
1005;DHT22;491;53.480;10.174;2023-07-20T14:26:14;26.10;99.90
1005;DHT22;491;53.480;10.174;2023-07-20T14:28:39;25.90;99.90
1005;DHT22;491;53.480;10.174;2023-07-20T14:31:05;25.80;99.90
1005;DHT22;491;53.480;10.174;2023-07-20T14:33:30;25.60;99.90
1005;DHT22;491;53.480;10.174;2023-07-20T14:35:56;25.40;99.90
1005;DHT22;491;53.480;10.174;2023-07-20T14:38:22;25.30;99.90
1005;DHT22;491;53.480;10.174;2023-07-20T14:40:47;25.20;99.90
1005;DHT22;491;53.480;10.174;2023-07-20T14:43:13;25.30;99.90
1005;DHT22;491;53.480;10.174;2023-07-20T14:45:40;25.30;99.90
1005;DHT22;491;53.480;10.174;2023-07-20T14:48:06;25.30;99.90
1005;DHT22;491;53.480;10.174;2023-07-20T14:50:31;25.20;99.90
1005;DHT22;491;53.480;10.174;2023-07-20T14:52:57;25.10;99.90
1005;DHT22;491;53.480;10.174;2023-07-20T14:55:22;24.90;99.90
1005;DHT22;491;53.480;10.174;2023-07-20T14:57:48;24.80;99.90
1005;DHT22;491;53.480;10.174;2023-07-20T15:00:15;24.60;99.90
1005;DHT22;491;53.480;10.174;2023-07-20T15:02:41;24.70;99.90
1005;DHT22;491;53.480;10.174;2023-07-20T15:05:07;24.70;99.90
1005;DHT22;491;53.480;10.174;2023-07-20T15:07:33;24.70;99.90
1005;DHT22;491;53.480;10.174;2023-07-20T15:09:58;24.80;99.90
1005;DHT22;491;53.480;10.174;2023-07-20T15:12:24;24.80;99.90
1005;DHT22;491;53.480;10.174;2023-07-20T15:15:08;24.70;99.90
1005;DHT22;491;53.480;10.174;2023-07-20T15:17:35;24.80;99.90
1005;DHT22;491;53.480;10.174;2023-07-20T15:20:05;24.70;99.90
1005;DHT22;491;53.480;10.174;2023-07-20T15:22:31;24.60;99.90
1005;DHT22;491;53.480;10.174;2023-07-20T15:24:57;24.40;99.90
1005;DHT22;491;53.480;10.174;2023-07-20T15:27:23;24.20;99.90
1005;DHT22;491;53.480;10.174;2023-07-20T15:29:49;24.20;99.90
1005;DHT22;491;53.480;10.174;2023-07-20T15:32:15;24.10;99.90
1005;DHT22;491;53.480;10.174;2023-07-20T15:34:42;24.10;99.90
1005;DHT22;491;53.480;10.174;2023-07-20T15:37:08;24.10;99.90
1005;DHT22;491;53.480;10.174;2023-07-20T15:39:34;24.10;99.90
1005;DHT22;491;53.480;10.174;2023-07-20T15:41:59;24.10;99.90
1005;DHT22;491;53.480;10.174;2023-07-20T15:44:25;24.10;99.90
1005;DHT22;491;53.480;10.174;2023-07-20T15:46:50;24.00;99.90
1005;DHT22;491;53.480;10.174;2023-07-20T15:49:16;23.90;99.90
1005;DHT22;491;53.480;10.174;2023-07-20T15:51:42;23.90;99.90
1005;DHT22;491;53.480;10.174;2023-07-20T15:54:09;23.80;99.90
1005;DHT22;491;53.480;10.174;2023-07-20T15:56:36;23.70;99.90
1005;DHT22;491;53.480;10.174;2023-07-20T15:59:02;23.70;99.90
1005;DHT22;491;53.480;10.174;2023-07-20T16:01:27;23.60;99.90
1005;DHT22;491;53.480;10.174;2023-07-20T16:03:54;23.50;99.90
1005;DHT22;491;53.480;10.174;2023-07-20T16:06:19;23.40;99.90
1005;DHT22;491;53.480;10.174;2023-07-20T16:08:45;23.20;99.90
1005;DHT22;491;53.480;10.174;2023-07-20T16:11:10;23.10;99.90
1005;DHT22;491;53.480;10.174;2023-07-20T16:13:36;23.10;99.90
1005;DHT22;491;53.480;10.174;2023-07-20T16:16:01;23.00;99.90
1005;DHT22;491;53.480;10.174;2023-07-20T16:18:27;23.10;99.90
1005;DHT22;491;53.480;10.174;2023-07-20T16:20:53;23.10;99.90